Time;durP1;ratioP1;P1;durP2;ratioP2;P2;SDS_P1;SDS_P2;PMS_P1;PMS_P2;Temp;Humidity;BMP_temperature;BMP_pressure;BME280_temperature;BME280_humidity;BME280_pressure;Samples;Min_cycle;Max_cycle;Signal;HPM_P1;HPM_P2
2023/02/07 00:02:00;;;;;;;17.33;9.75;;;;;;;-3.04;100.00;93925.13;6183720;23;20141;-77
2023/02/07 00:04:25;;;;;;;18.13;9.02;;;;;;;-3.03;100.00;93941.28;6157759;23;20372;-77
2023/02/07 00:06:51;;;;;;;15.70;9.13;;;;;;;-3.04;100.00;93947.34;6158149;23;20013;-77
2023/02/07 00:09:16;;;;;;;16.38;9.40;;;;;;;-3.03;100.00;93954.09;6183031;23;20023;-77
2023/02/07 00:11:42;;;;;;;16.05;8.68;;;;;;;-2.98;100.00;93962.84;6157664;23;20020;-76
2023/02/07 00:14:10;;;;;;;18.83;9.60;;;;;;;-3.01;100.00;93965.75;6159248;23;20009;-76
2023/02/07 00:16:35;;;;;;;14.50;8.55;;;;;;;-2.88;100.00;93962.66;6162360;23;20013;-77
2023/02/07 00:19:01;;;;;;;14.85;8.27;;;;;;;-2.96;100.00;93955.00;6188214;23;20020;-77
2023/02/07 00:21:27;;;;;;;14.77;7.70;;;;;;;-3.00;100.00;93959.66;6185481;23;20453;-77
2023/02/07 00:23:53;;;;;;;15.15;8.27;;;;;;;-2.97;100.00;93964.47;6184764;23;20012;-77
2023/02/07 00:26:21;;;;;;;14.05;7.72;;;;;;;-2.95;100.00;93964.28;6184901;23;20017;-77
2023/02/07 00:28:49;;;;;;;15.48;8.50;;;;;;;-2.97;100.00;93958.56;6184657;23;20004;-77
2023/02/07 00:31:18;;;;;;;16.92;8.20;;;;;;;-3.02;100.00;93959.03;6158629;23;20382;-77
2023/02/07 00:33:46;;;;;;;14.50;7.65;;;;;;;-2.97;100.00;93966.25;6184914;23;20084;-77
2023/02/07 00:36:17;;;;;;;15.07;8.48;;;;;;;-2.97;100.00;93964.47;6184538;23;20013;-77
2023/02/07 00:38:43;;;;;;;17.73;8.55;;;;;;;-2.95;100.00;93966.84;6158751;23;20071;-77
2023/02/07 00:41:13;;;;;;;14.23;7.85;;;;;;;-2.99;100.00;93970.72;6185007;23;20035;-77
2023/02/07 00:43:40;;;;;;;14.00;8.20;;;;;;;-2.98;100.00;93982.56;6184913;23;20441;-77
2023/02/07 00:46:06;;;;;;;13.38;7.95;;;;;;;-3.03;100.00;93985.63;6133852;23;20488;-77
2023/02/07 00:48:32;;;;;;;13.32;7.78;;;;;;;-3.00;100.00;93987.84;6158582;23;20136;-77
2023/02/07 00:50:58;;;;;;;17.40;9.20;;;;;;;-3.03;100.00;93990.75;6184885;23;19997;-77
2023/02/07 00:53:25;;;;;;;15.95;8.18;;;;;;;-3.04;100.00;94003.72;6159212;23;20071;-77
2023/02/07 00:55:51;;;;;;;15.57;8.90;;;;;;;-3.03;100.00;94011.25;6158959;23;20024;-77
2023/02/07 00:58:17;;;;;;;15.75;9.05;;;;;;;-3.07;100.00;94009.97;6184998;23;20437;-77
2023/02/07 01:00:44;;;;;;;12.82;7.55;;;;;;;-3.03;100.00;94015.59;6158543;23;20412;-77
2023/02/07 01:03:09;;;;;;;16.95;9.88;;;;;;;-3.09;100.00;94005.97;6159447;23;20021;-77
2023/02/07 01:05:35;;;;;;;19.67;9.10;;;;;;;-3.08;100.00;94008.38;6159521;23;20073;-77
2023/02/07 01:08:01;;;;;;;16.08;8.45;;;;;;;-3.09;100.00;94000.88;6184723;23;20353;-78
2023/02/07 01:10:27;;;;;;;15.35;8.82;;;;;;;-3.09;100.00;94026.47;6184868;23;20013;-76
2023/02/07 01:12:53;;;;;;;17.20;8.90;;;;;;;-3.12;100.00;94011.44;6159092;23;20489;-77
2023/02/07 01:15:21;;;;;;;17.75;8.85;;;;;;;-3.15;100.00;94018.50;6185338;23;20004;-76
2023/02/07 01:17:47;;;;;;;17.13;8.70;;;;;;;-3.10;100.00;94024.91;6108986;23;20024;-77
2023/02/07 01:20:14;;;;;;;16.25;8.75;;;;;;;-3.21;100.00;94021.72;6158502;23;20448;-77
2023/02/07 01:22:40;;;;;;;16.05;8.55;;;;;;;-3.26;100.00;94018.84;6185473;23;20024;-77
2023/02/07 01:25:06;;;;;;;15.15;8.23;;;;;;;-3.37;100.00;94029.44;6159290;23;20001;-77
2023/02/07 01:27:32;;;;;;;15.23;8.40;;;;;;;-3.39;100.00;94036.47;6158187;23;20009;-77
2023/02/07 01:29:58;;;;;;;14.05;8.85;;;;;;;-3.39;100.00;94032.16;6184972;23;20479;-77
2023/02/07 01:32:24;;;;;;;15.43;9.23;;;;;;;-3.41;100.00;94036.63;6184736;23;20023;-76
2023/02/07 01:34:49;;;;;;;14.40;9.02;;;;;;;-3.49;100.00;94040.97;6133865;23;20005;-77
2023/02/07 01:37:15;;;;;;;12.38;7.43;;;;;;;-3.52;100.00;94046.41;6158863;23;20467;-77
2023/02/07 01:39:41;;;;;;;18.63;8.60;;;;;;;-3.46;100.00;94056.03;6109516;23;20311;-77
2023/02/07 01:42:13;;;;;;;15.63;8.85;;;;;;;-3.57;100.00;94041.78;6158781;23;20053;-77
2023/02/07 01:44:41;;;;;;;16.35;8.93;;;;;;;-3.53;100.00;94044.81;6184866;23;20319;-77
2023/02/07 01:47:17;;;;;;;16.02;8.23;;;;;;;-3.54;100.00;94044.00;6158115;23;20406;-76
2023/02/07 01:49:44;;;;;;;14.07;8.15;;;;;;;-3.60;100.00;94042.13;6184828;23;20009;-77
2023/02/07 01:52:17;;;;;;;16.98;9.13;;;;;;;-3.66;100.00;94048.66;6134514;23;20009;-77
2023/02/07 01:54:44;;;;;;;;;;;;;;;-3.71;100.00;94052.69;6185029;23;20009;-77
2023/02/07 01:57:14;;;;;;;14.40;7.72;;;;;;;-3.71;100.00;94050.91;6134851;23;19904;-77
2023/02/07 01:59:42;;;;;;;13.13;7.13;;;;;;;-3.77;100.00;94046.44;6158466;23;20013;-77
2023/02/07 02:02:11;;;;;;;16.58;7.88;;;;;;;-3.86;100.00;94035.38;6134853;23;20009;-78
2023/02/07 02:04:38;;;;;;;14.35;8.63;;;;;;;-3.93;100.00;94041.31;6158701;23;20009;-78
2023/02/07 02:07:06;;;;;;;16.85;9.02;;;;;;;-3.98;100.00;94047.69;6158831;23;20028;-78
2023/02/07 02:09:33;;;;;;;14.43;7.82;;;;;;;-4.04;100.00;94053.44;6184620;23;20009;-77
2023/02/07 02:11:58;;;;;;;12.82;7.72;;;;;;;-4.08;100.00;94053.91;6158690;23;20043;-78
2023/02/07 02:14:47;;;;;;;14.25;8.23;;;;;;;-4.10;100.00;94058.41;6159088;23;20091;-77
2023/02/07 02:17:32;;;;;;;17.25;8.15;;;;;;;-4.16;100.00;94062.41;6158418;23;20043;-78
2023/02/07 02:19:57;;;;;;;13.55;8.23;;;;;;;-4.20;100.00;94061.91;6184457;23;20009;-77
2023/02/07 02:22:48;;;;;;;15.75;8.70;;;;;;;-4.23;100.00;94064.00;6157982;23;19997;-77
2023/02/07 02:25:35;;;;;;;14.43;8.10;;;;;;;-4.26;100.00;94066.84;6185248;23;20009;-78
2023/02/07 02:28:20;;;;;;;13.10;8.05;;;;;;;-4.29;100.00;94062.84;6158398;23;20017;-77
2023/02/07 02:31:04;;;;;;;15.00;8.82;;;;;;;-4.30;100.00;94055.31;6158315;23;20017;-77
2023/02/07 02:33:54;;;;;;;15.52;8.15;;;;;;;-4.30;100.00;94060.44;6184942;23;20016;-78
2023/02/07 02:36:38;;;;;;;15.10;8.10;;;;;;;-4.28;100.00;94055.97;6158361;23;20012;-76
2023/02/07 02:39:24;;;;;;;14.10;8.48;;;;;;;-4.35;100.00;94045.56;6158520;23;20027;-76
2023/02/07 02:42:08;;;;;;;13.02;7.57;;;;;;;-4.32;100.00;94052.13;6158375;23;20009;-77
2023/02/07 02:44:40;;;;;;;14.02;7.90;;;;;;;-4.37;100.00;94047.47;6185693;23;20016;-78
2023/02/07 02:47:08;;;;;;;15.85;8.18;;;;;;;-4.43;100.00;94037.91;6159113;23;20009;-78
2023/02/07 02:49:36;;;;;;;14.23;7.45;;;;;;;-4.45;100.00;94048.25;6158740;23;20399;-77
2023/02/07 02:52:02;;;;;;;14.70;7.65;;;;;;;-4.50;100.00;94047.13;6157848;23;20013;-77
2023/02/07 02:54:35;;;;;;;12.75;7.40;;;;;;;-4.53;100.00;94048.22;6184607;23;20079;-77
2023/02/07 02:57:36;;;;;;;14.00;8.20;;;;;;;-4.52;100.00;94049.06;6158109;23;20013;-77
2023/02/07 03:00:21;;;;;;;14.23;7.60;;;;;;;-4.51;100.00;94042.97;6133506;23;20017;-78
2023/02/07 03:03:05;;;;;;;14.98;7.93;;;;;;;-4.50;100.00;94040.28;6158358;23;20008;-78
2023/02/07 03:06:00;;;;;;;13.93;8.48;;;;;;;-4.55;100.00;94039.13;6158172;23;20017;-77
2023/02/07 03:08:42;;;;;;;15.77;8.45;;;;;;;-4.61;100.00;94038.00;6157172;23;20028;-77
2023/02/07 03:11:21;;;;;;;17.07;8.90;;;;;;;-4.69;100.00;94037.97;6157992;23;20028;-78
2023/02/07 03:14:05;;;;;;;16.13;8.00;;;;;;;-4.74;100.00;94030.78;6158623;23;20012;-77
2023/02/07 03:16:55;;;;;;;14.85;7.88;;;;;;;-4.72;100.00;94033.19;6184764;23;20009;-77
2023/02/07 03:19:47;;;;;;;16.02;7.88;;;;;;;-4.78;100.00;94033.78;6184309;23;20009;-75
2023/02/07 03:22:18;;;;;;;12.07;7.05;;;;;;;-4.79;100.00;94032.19;6157925;23;20262;-77
2023/02/07 03:24:48;;;;;;;17.73;6.93;;;;;;;-4.76;100.00;94044.66;6158082;23;20013;-76
2023/02/07 03:27:17;;;;;;;15.00;8.13;;;;;;;-4.82;100.00;94038.41;6157267;23;20004;-77
2023/02/07 03:29:46;;;;;;;15.70;8.13;;;;;;;-4.84;100.00;94045.41;6157557;23;20408;-77
2023/02/07 03:32:13;;;;;;;14.15;7.85;;;;;;;-4.93;100.00;94048.88;6183951;23;20004;-77
2023/02/07 03:35:00;;;;;;;12.90;7.80;;;;;;;-4.92;100.00;94047.94;6184135;23;20044;-77
2023/02/07 03:37:40;;;;;;;17.77;8.00;;;;;;;-4.96;100.00;94052.56;6157798;23;20017;-76
2023/02/07 03:40:07;;;;;;;16.58;7.50;;;;;;;-4.99;100.00;94057.97;6183670;23;20452;-77
2023/02/07 03:42:38;;;;;;;14.80;7.80;;;;;;;-5.02;100.00;94051.44;6184027;23;20001;-77
2023/02/07 03:45:06;;;;;;;18.30;7.68;;;;;;;-5.03;100.00;94057.47;6183710;23;20009;-77
2023/02/07 03:47:31;;;;;;;13.50;7.78;;;;;;;-5.04;100.00;94055.09;6183086;23;20340;-76
2023/02/07 03:49:57;;;;;;;13.00;7.63;;;;;;;-5.06;100.00;94057.00;6183789;23;20013;-77
2023/02/07 03:52:23;;;;;;;14.18;7.60;;;;;;;-5.09;100.00;94062.38;6185825;23;20544;-77
2023/02/07 03:54:48;;;;;;;13.18;7.55;;;;;;;-5.11;100.00;94054.91;6187329;23;20013;-77
2023/02/07 03:57:14;;;;;;;15.02;7.07;;;;;;;-5.16;100.00;94059.63;6188883;23;20009;-77
2023/02/07 03:59:40;;;;;;;15.00;7.20;;;;;;;-5.19;100.00;94069.38;6186682;23;20013;-76
2023/02/07 04:02:05;;;;;;;10.05;6.18;;;;;;;-5.22;100.00;94065.38;6159237;23;20005;-76
2023/02/07 04:04:31;;;;;;;15.05;6.70;;;;;;;-5.29;100.00;94059.25;6185752;23;20450;-77
2023/02/07 04:06:57;;;;;;;13.68;6.90;;;;;;;-5.32;100.00;94059.56;6185049;23;20009;-77
2023/02/07 04:09:23;;;;;;;11.90;6.72;;;;;;;-5.35;100.00;94060.66;6159010;23;20107;-76
2023/02/07 04:11:50;;;;;;;11.40;5.90;;;;;;;-5.32;100.00;94067.22;6185446;23;20114;-77
2023/02/07 04:14:18;;;;;;;10.40;5.97;;;;;;;-5.35;100.00;94058.09;6185800;23;20017;-77
2023/02/07 04:16:45;;;;;;;10.45;6.88;;;;;;;-5.36;100.00;94060.81;6159745;23;20001;-77
2023/02/07 04:19:11;;;;;;;12.32;5.97;;;;;;;-5.42;100.00;94056.31;6185760;23;20017;-77
2023/02/07 04:21:37;;;;;;;13.25;6.20;;;;;;;-5.41;100.00;94061.25;6158813;23;20016;-76
2023/02/07 04:24:03;;;;;;;16.10;6.32;;;;;;;-5.44;100.00;94048.81;6159405;23;20013;-77
2023/02/07 04:26:28;;;;;;;12.20;7.30;;;;;;;-5.44;100.00;94064.91;6185559;23;20012;-77
2023/02/07 04:28:54;;;;;;;16.27;7.25;;;;;;;-5.46;100.00;94060.91;6185519;23;20444;-77
2023/02/07 04:31:19;;;;;;;12.60;7.00;;;;;;;-5.48;100.00;94067.91;6158694;23;20083;-77
2023/02/07 04:33:45;;;;;;;11.85;7.07;;;;;;;-5.50;100.00;94074.91;6185648;23;20063;-77
2023/02/07 04:36:10;;;;;;;12.90;6.93;;;;;;;-5.50;100.00;94080.81;6159573;23;20030;-77
2023/02/07 04:38:36;;;;;;;11.77;6.82;;;;;;;-5.50;100.00;94092.78;6159143;23;20024;-77
2023/02/07 04:41:03;;;;;;;12.57;6.43;;;;;;;-5.53;100.00;94095.63;6185384;23;20451;-77
2023/02/07 04:43:31;;;;;;;13.68;7.10;;;;;;;-5.55;100.00;94098.34;6185617;23;20438;-77
2023/02/07 04:45:56;;;;;;;11.32;6.75;;;;;;;-5.55;100.00;94095.00;6185773;23;20024;-77
2023/02/07 04:48:22;;;;;;;12.27;6.90;;;;;;;-5.58;100.00;94098.63;6184271;23;20403;-76
2023/02/07 04:50:47;;;;;;;18.38;7.55;;;;;;;-5.58;100.00;94092.72;6158603;23;20001;-76
2023/02/07 04:53:13;;;;;;;13.88;7.57;;;;;;;-5.61;100.00;94103.22;6185700;23;20028;-77
2023/02/07 04:55:39;;;;;;;15.80;6.72;;;;;;;-5.66;100.00;94099.34;6182009;23;20015;-76
2023/02/07 04:58:05;;;;;;;15.68;6.63;;;;;;;-5.67;100.00;94102.88;6180918;23;20017;-77
2023/02/07 05:00:32;;;;;;;10.93;6.68;;;;;;;-5.67;100.00;94104.63;6156684;23;20388;-77
2023/02/07 05:02:58;;;;;;;11.27;6.20;;;;;;;-5.67;100.00;94105.44;6182874;23;20013;-77
2023/02/07 05:05:24;;;;;;;13.77;7.07;;;;;;;-5.66;100.00;94116.44;6159138;23;20005;-77
2023/02/07 05:07:49;;;;;;;14.27;6.93;;;;;;;-5.67;100.00;94115.63;6186091;23;20445;-77
2023/02/07 05:10:15;;;;;;;11.48;7.13;;;;;;;-5.68;100.00;94114.00;6159432;23;20018;-77
2023/02/07 05:12:41;;;;;;;11.85;6.82;;;;;;;-5.69;100.00;94117.53;6134472;23;20071;-77
2023/02/07 05:15:06;;;;;;;15.32;6.88;;;;;;;-5.68;100.00;94119.13;6158305;23;20151;-77
2023/02/07 05:17:37;;;;;;;10.73;6.40;;;;;;;-5.69;100.00;94121.84;6183508;23;20087;-77
2023/02/07 05:20:04;;;;;;;14.40;7.35;;;;;;;-5.72;100.00;94110.19;6184795;23;20287;-76
2023/02/07 05:22:29;;;;;;;12.90;6.80;;;;;;;-5.73;100.00;94120.53;6184317;23;20000;-76
2023/02/07 05:24:55;;;;;;;11.88;5.97;;;;;;;-5.76;100.00;94115.72;6184304;23;20024;-77
2023/02/07 05:27:21;;;;;;;12.13;6.63;;;;;;;-5.76;100.00;94125.94;6181098;23;20030;-76
2023/02/07 05:29:47;;;;;;;11.10;6.05;;;;;;;-5.76;100.00;94136.94;6157212;23;20041;-76
2023/02/07 05:33:14;;;;;;;11.35;6.30;;;;;;;-5.78;100.00;94136.25;6132551;23;20013;-76
2023/02/07 05:35:08;;;;;;;11.68;5.60;;;;;;;-5.78;100.00;94143.91;6162439;23;20305;-76
2023/02/07 05:37:34;;;;;;;9.52;5.70;;;;;;;-5.79;100.00;94144.84;6181692;23;20009;-76
2023/02/07 05:40:00;;;;;;;13.00;6.28;;;;;;;-5.81;100.00;94146.75;6183040;23;20052;-76
2023/02/07 05:42:26;;;;;;;14.10;6.10;;;;;;;-5.77;100.00;94144.72;6182157;23;20001;-77
2023/02/07 05:44:51;;;;;;;9.98;5.90;;;;;;;-5.77;100.00;94148.06;6154167;23;20147;-77
2023/02/07 05:47:17;;;;;;;11.00;6.30;;;;;;;-5.77;100.00;94148.06;6154699;23;20079;-76
2023/02/07 05:49:42;;;;;;;12.52;6.57;;;;;;;-5.79;100.00;94146.59;6180658;23;20511;-75
2023/02/07 05:52:09;;;;;;;9.95;6.00;;;;;;;-5.87;100.00;94147.34;6180307;23;20448;-76
2023/02/07 05:54:34;;;;;;;12.23;6.15;;;;;;;-5.87;100.00;94155.00;6131856;23;20021;-76
2023/02/07 05:57:00;;;;;;;12.05;6.70;;;;;;;-5.83;100.00;94161.41;6156566;23;20302;-76
2023/02/07 05:59:25;;;;;;;11.70;6.38;;;;;;;-5.84;100.00;94170.00;6182229;23;20114;-76
2023/02/07 06:01:51;;;;;;;13.13;6.25;;;;;;;-5.84;100.00;94180.19;6180014;23;20008;-77
2023/02/07 06:04:17;;;;;;;9.75;5.38;;;;;;;-5.86;100.00;94189.75;6183175;23;20410;-78
2023/02/07 06:06:42;;;;;;;10.18;5.63;;;;;;;-5.82;100.00;94195.38;6133037;23;20080;-75
2023/02/07 06:09:08;;;;;;;11.82;5.90;;;;;;;-5.81;100.00;94195.22;6157444;23;20021;-77
2023/02/07 06:11:33;;;;;;;10.77;6.43;;;;;;;-5.79;100.00;94189.97;6183589;23;20043;-77
2023/02/07 06:13:59;;;;;;;11.00;6.45;;;;;;;-5.82;100.00;94182.63;6158134;23;20023;-77
2023/02/07 06:16:24;;;;;;;14.07;7.03;;;;;;;-5.80;100.00;94196.81;6184178;23;20008;-77
2023/02/07 06:18:50;;;;;;;10.90;6.38;;;;;;;-5.76;100.00;94198.16;6159060;23;20066;-77
2023/02/07 06:21:17;;;;;;;12.82;6.65;;;;;;;-5.78;100.00;94194.94;6158954;23;20146;-77
2023/02/07 06:23:45;;;;;;;11.60;7.22;;;;;;;-5.79;100.00;94197.63;6159730;23;20017;-77
2023/02/07 06:26:11;;;;;;;12.82;6.97;;;;;;;-5.79;100.00;94197.63;6109668;23;20012;-76
2023/02/07 06:28:37;;;;;;;14.65;8.18;;;;;;;-5.78;100.00;94200.03;6183182;23;20021;-75
2023/02/07 06:31:03;;;;;;;17.13;8.02;;;;;;;-5.79;100.00;94205.28;6157839;23;20016;-76
2023/02/07 06:33:28;;;;;;;15.10;7.88;;;;;;;-5.79;100.00;94208.63;6182987;23;20036;-76
2023/02/07 06:35:54;;;;;;;15.45;7.93;;;;;;;-5.78;100.00;94209.44;6182831;23;20024;-76
2023/02/07 06:38:20;;;;;;;12.10;7.30;;;;;;;-5.76;100.00;94208.34;6182868;23;20088;-76
2023/02/07 06:40:47;;;;;;;13.20;7.65;;;;;;;-5.76;100.00;94212.66;6156374;23;20001;-76
2023/02/07 06:43:13;;;;;;;13.95;7.85;;;;;;;-5.73;100.00;94217.47;6182914;23;20022;-76
2023/02/07 06:45:39;;;;;;;11.75;7.57;;;;;;;-5.70;100.00;94222.25;6156372;23;20322;-76
2023/02/07 06:48:05;;;;;;;14.10;7.25;;;;;;;-5.70;100.00;94219.72;6182778;23;20071;-76
2023/02/07 06:50:31;;;;;;;17.58;7.72;;;;;;;-5.65;100.00;94218.34;6182687;23;20341;-76
2023/02/07 06:53:00;;;;;;;15.20;8.23;;;;;;;-5.58;100.00;94230.50;6182771;23;20013;-76
2023/02/07 06:55:28;;;;;;;16.17;8.90;;;;;;;-5.25;100.00;94226.50;6156235;23;20017;-76
2023/02/07 06:57:53;;;;;;;18.48;8.18;;;;;;;-4.54;100.00;94230.69;6183278;23;20024;-76
2023/02/07 07:00:20;;;;;;;17.27;8.95;;;;;;;-3.52;100.00;94223.88;6182653;23;19992;-76
2023/02/07 07:02:48;;;;;;;17.25;9.60;;;;;;;-2.87;100.00;94225.66;6182385;23;20032;-76
2023/02/07 07:05:13;;;;;;;16.08;9.65;;;;;;;-2.22;100.00;94229.09;6156529;23;20401;-76
2023/02/07 07:07:39;;;;;;;18.13;10.45;;;;;;;-1.58;100.00;94232.34;6182636;23;20015;-76
2023/02/07 07:10:05;;;;;;;20.85;11.48;;;;;;;-1.00;100.00;94239.72;6182263;23;20021;-76
2023/02/07 07:12:31;;;;;;;35.40;17.58;;;;;;;-0.48;100.00;94228.66;6182745;23;20013;-76
2023/02/07 07:14:56;;;;;;;23.83;15.13;;;;;;;0.13;95.96;94236.22;6156439;23;20418;-76
2023/02/07 07:17:22;;;;;;;17.67;10.75;;;;;;;0.75;94.35;94224.66;6156376;23;20013;-76
2023/02/07 07:19:47;;;;;;;17.25;8.20;;;;;;;1.37;90.06;94224.00;6131729;23;20337;-77
2023/02/07 07:22:13;;;;;;;17.35;9.18;;;;;;;1.83;85.01;94223.53;6182813;23;20214;-76
2023/02/07 07:24:38;;;;;;;13.25;8.70;;;;;;;2.49;80.33;94224.84;6156042;23;20005;-77
2023/02/07 07:27:04;;;;;;;12.40;7.72;;;;;;;3.12;77.94;94227.97;6156471;23;20072;-76
2023/02/07 07:29:29;;;;;;;12.60;8.32;;;;;;;3.32;74.09;94234.97;6183018;23;20088;-77
2023/02/07 07:31:55;;;;;;;12.52;8.70;;;;;;;4.05;74.07;94236.72;6157017;23;20017;-77
2023/02/07 07:34:20;;;;;;;13.90;8.43;;;;;;;4.34;69.97;94228.44;6183333;23;20005;-77
2023/02/07 07:36:47;;;;;;;14.05;8.75;;;;;;;4.71;68.21;94227.94;6183808;23;20449;-77
2023/02/07 07:39:13;;;;;;;13.50;9.93;;;;;;;5.00;65.07;94232.56;6183593;23;20010;-77
2023/02/07 07:41:39;;;;;;;21.20;15.13;;;;;;;5.38;64.63;94236.09;6133038;23;20013;-77
2023/02/07 07:44:10;;;;;;;21.13;16.25;;;;;;;5.88;61.24;94230.09;6157606;23;20005;-77
2023/02/07 07:46:35;;;;;;;15.63;11.70;;;;;;;6.53;58.03;94237.47;6157514;23;20067;-76
2023/02/07 07:49:01;;;;;;;14.70;10.45;;;;;;;6.99;56.95;94236.91;6157924;23;20015;-77
2023/02/07 07:51:26;;;;;;;18.60;9.52;;;;;;;7.74;53.75;94253.06;6132571;23;20025;-77
2023/02/07 07:53:52;;;;;;;10.38;7.15;;;;;;;7.65;54.05;94245.56;6157354;23;20009;-77
2023/02/07 07:56:17;;;;;;;9.95;6.75;;;;;;;8.68;51.16;94237.41;6158365;23;20017;-77
2023/02/07 07:58:43;;;;;;;9.27;6.45;;;;;;;8.95;47.62;94232.44;6158653;23;20008;-78
2023/02/07 08:01:09;;;;;;;10.73;6.47;;;;;;;8.92;47.68;94233.69;6158245;23;20469;-78
2023/02/07 08:03:34;;;;;;;10.98;7.28;;;;;;;8.77;47.59;94236.00;6185096;23;20060;-77
2023/02/07 08:06:00;;;;;;;9.40;6.78;;;;;;;9.36;47.61;94241.00;6186193;23;20013;-78
2023/02/07 08:08:25;;;;;;;9.38;6.88;;;;;;;9.83;45.05;94242.53;6182989;23;20022;-78
2023/02/07 08:10:51;;;;;;;11.02;7.40;;;;;;;10.08;43.08;94240.31;6184442;23;20017;-79
2023/02/07 08:13:18;;;;;;;11.13;8.02;;;;;;;10.71;42.01;94237.50;6160238;23;20420;-76
2023/02/07 08:15:45;;;;;;;8.95;6.55;;;;;;;10.82;41.33;94241.81;6182268;23;20017;-76
2023/02/07 08:18:10;;;;;;;10.32;6.78;;;;;;;10.67;39.94;94246.88;6183555;23;20318;-77
2023/02/07 08:20:36;;;;;;;10.10;6.80;;;;;;;11.15;38.96;94243.50;6183702;23;20040;-79
2023/02/07 08:23:02;;;;;;;10.40;6.93;;;;;;;11.19;37.93;94238.56;6160531;23;20080;-77
2023/02/07 08:25:28;;;;;;;8.82;6.55;;;;;;;10.88;37.95;94243.47;6183030;23;20088;-77
2023/02/07 08:27:54;;;;;;;9.95;6.43;;;;;;;12.45;34.18;94239.84;6183382;23;20037;-77
2023/02/07 08:30:20;;;;;;;13.10;6.53;;;;;;;11.12;36.91;94235.34;6158159;23;20017;-77
2023/02/07 08:32:46;;;;;;;10.57;6.13;;;;;;;10.86;37.49;94232.44;6183647;23;20085;-76
2023/02/07 08:35:12;;;;;;;8.38;6.15;;;;;;;10.33;38.18;94232.03;6186564;23;20096;-78
2023/02/07 08:37:37;;;;;;;8.95;5.88;;;;;;;10.21;37.92;94233.94;6160792;23;20256;-78
2023/02/07 08:40:05;;;;;;;9.18;5.97;;;;;;;11.24;37.58;94230.75;6161966;23;20009;-79
2023/02/07 08:42:30;;;;;;;11.43;5.88;;;;;;;9.99;37.78;94237.28;6188446;23;20084;-77
2023/02/07 08:44:56;;;;;;;10.77;7.50;;;;;;;8.70;42.49;94228.31;6158496;23;20468;-77
2023/02/07 08:47:22;;;;;;;9.70;6.38;;;;;;;8.68;41.46;94226.97;6184603;23;20373;-77
2023/02/07 08:49:47;;;;;;;10.50;7.35;;;;;;;8.45;45.94;94214.75;6184279;23;20472;-77
2023/02/07 08:52:13;;;;;;;11.20;7.25;;;;;;;9.70;44.70;94204.41;6158321;23;20013;-77
2023/02/07 08:54:39;;;;;;;10.43;6.53;;;;;;;9.56;42.73;94206.56;6184526;23;20017;-77
2023/02/07 08:57:04;;;;;;;12.32;8.02;;;;;;;8.22;45.32;94197.28;6157647;23;20016;-77
2023/02/07 08:59:30;;;;;;;10.23;7.10;;;;;;;7.79;46.60;94198.44;6184004;23;20004;-77
2023/02/07 09:01:56;;;;;;;10.57;6.55;;;;;;;7.48;48.55;94198.53;6157227;23;20025;-77
2023/02/07 09:04:21;;;;;;;13.00;7.68;;;;;;;7.38;50.56;94189.69;6184178;23;20349;-76
2023/02/07 09:06:47;;;;;;;9.98;6.72;;;;;;;6.77;50.92;94189.72;6183623;23;20049;-77
2023/02/07 09:09:13;;;;;;;12.55;6.93;;;;;;;7.16;50.83;94184.19;6157336;23;20015;-76
2023/02/07 09:11:38;;;;;;;12.02;6.78;;;;;;;7.54;47.15;94183.81;6183736;23;20023;-76
2023/02/07 09:14:04;;;;;;;11.20;6.78;;;;;;;7.53;44.01;94182.22;6183996;23;20032;-76
2023/02/07 09:16:30;;;;;;;8.23;5.13;;;;;;;7.65;44.98;94188.22;6157191;23;20013;-76
2023/02/07 09:18:56;;;;;;;9.52;5.85;;;;;;;7.93;44.82;94186.78;6183583;23;20095;-76
2023/02/07 09:21:22;;;;;;;9.02;5.70;;;;;;;8.27;44.17;94179.13;6183495;23;19997;-76
2023/02/07 09:23:48;;;;;;;9.13;6.15;;;;;;;8.24;43.88;94187.41;6183610;23;20024;-76
2023/02/07 09:26:19;;;;;;;11.68;7.82;;;;;;;6.49;51.33;94184.31;6183579;23;20353;-77
2023/02/07 09:28:45;;;;;;;13.93;9.10;;;;;;;5.77;54.76;94184.84;6156609;23;20021;-77
2023/02/07 09:31:13;;;;;;;11.73;8.07;;;;;;;5.31;58.33;94189.41;6157193;23;20433;-77
2023/02/07 09:33:39;;;;;;;14.65;8.73;;;;;;;5.38;57.21;94182.38;6183579;23;20017;-76
2023/02/07 09:36:05;;;;;;;12.18;7.90;;;;;;;5.60;57.60;94181.97;6157619;23;20025;-77
2023/02/07 09:38:31;;;;;;;8.77;5.75;;;;;;;5.24;58.50;94185.28;6183514;23;20009;-76
2023/02/07 09:40:58;;;;;;;10.07;6.63;;;;;;;4.88;59.16;94186.72;6183760;23;20013;-76
2023/02/07 09:43:35;;;;;;;6.40;3.97;;;;;;;3.73;63.41;94177.78;6185843;23;20044;-76
2023/02/07 09:46:09;;;;;;;13.88;7.60;;;;;;;3.78;62.20;94184.16;6184507;23;20009;-76
2023/02/07 09:48:54;;;;;;;14.65;8.50;;;;;;;3.04;68.21;94197.13;6184188;23;20074;-78
2023/02/07 09:51:23;;;;;;;7.45;4.93;;;;;;;3.24;65.07;94183.41;6159120;23;20239;-77
2023/02/07 09:53:57;;;;;;;11.60;8.05;;;;;;;4.17;63.87;94180.66;6183414;23;20417;-76
2023/02/07 09:56:26;;;;;;;13.20;7.82;;;;;;;4.87;60.52;94169.56;6156746;23;20021;-76
2023/02/07 09:59:01;;;;;;;13.63;8.43;;;;;;;5.35;58.10;94169.81;6183488;23;20008;-76
2023/02/07 10:01:33;;;;;;;8.13;5.03;;;;;;;5.48;56.36;94170.72;6185344;23;20076;-77
2023/02/07 10:04:04;;;;;;;10.90;7.15;;;;;;;4.69;57.30;94171.06;6183409;23;20016;-76
2023/02/07 10:06:30;;;;;;;8.27;5.53;;;;;;;4.61;60.56;94163.50;6183784;23;20009;-77
2023/02/07 10:08:59;;;;;;;9.55;6.25;;;;;;;3.68;61.64;94163.84;6156667;23;20020;-76
2023/02/07 10:11:43;;;;;;;6.60;4.78;;;;;;;3.57;62.14;94174.81;6158076;23;20124;-78
2023/02/07 10:14:16;;;;;;;11.07;6.28;;;;;;;3.84;63.59;94165.22;6158948;23;20523;-78
2023/02/07 10:16:56;;;;;;;10.52;6.18;;;;;;;3.59;61.02;94176.22;6185114;23;20009;-78
2023/02/07 10:19:41;;;;;;;10.75;6.20;;;;;;;2.39;65.65;94167.56;6185106;23;20015;-78
2023/02/07 10:22:17;;;;;;;12.75;5.53;;;;;;;2.16;67.98;94153.16;6185871;23;20016;-78
2023/02/07 10:25:05;;;;;;;11.57;6.45;;;;;;;1.85;69.78;94153.63;6185344;23;20054;-78
2023/02/07 10:27:36;;;;;;;10.30;5.50;;;;;;;2.31;69.66;94149.63;6185929;23;20073;-78
2023/02/07 10:30:17;;;;;;;5.68;3.60;;;;;;;2.65;65.06;94151.31;6158630;23;20021;-78
2023/02/07 10:32:45;;;;;;;10.07;5.63;;;;;;;3.51;63.07;94153.94;6186013;23;20009;-78
2023/02/07 10:35:28;;;;;;;11.50;6.75;;;;;;;3.30;62.47;94141.97;6157206;23;20008;-76
2023/02/07 10:37:59;;;;;;;5.95;3.80;;;;;;;2.90;62.18;94134.25;6183203;23;20464;-77
2023/02/07 10:40:34;;;;;;;8.75;4.68;;;;;;;3.05;61.99;94128.84;6182954;23;20080;-77
2023/02/07 10:43:16;;;;;;;12.23;6.45;;;;;;;2.77;62.73;94129.06;6183002;23;20438;-77
2023/02/07 10:45:42;;;;;;;7.97;5.00;;;;;;;3.27;63.41;94118.31;6156264;23;20013;-77
2023/02/07 10:48:14;;;;;;;11.88;6.40;;;;;;;3.85;60.52;94115.78;6182919;23;20120;-77
2023/02/07 10:50:40;;;;;;;10.80;6.45;;;;;;;4.74;57.73;94106.34;6182725;23;20013;-77
2023/02/07 10:53:06;;;;;;;9.55;5.70;;;;;;;5.38;53.55;94101.06;6183029;23;20013;-77
2023/02/07 10:55:45;;;;;;;5.45;3.65;;;;;;;5.45;53.51;94093.19;6182742;23;20017;-77
2023/02/07 10:58:22;;;;;;;12.32;6.07;;;;;;;5.54;53.54;94090.13;6183124;23;20310;-77
2023/02/07 11:00:50;;;;;;;7.05;4.57;;;;;;;5.79;54.48;94086.69;6182854;23;20009;-77
2023/02/07 11:03:22;;;;;;;11.15;5.78;;;;;;;5.73;53.56;94088.31;6182727;23;20333;-77
2023/02/07 11:05:54;;;;;;;9.88;5.97;;;;;;;5.75;51.73;94083.72;6184509;23;20068;-76
2023/02/07 11:08:26;;;;;;;9.73;6.68;;;;;;;6.29;51.92;94080.50;6183096;23;20008;-77
2023/02/07 11:10:54;;;;;;;;;;;;;;;6.63;50.64;94066.03;6184164;23;20013;-77
2023/02/07 11:13:28;;;;;;;11.80;5.70;;;;;;;6.93;49.32;94054.75;6184037;23;19908;-77
2023/02/07 11:15:55;;;;;;;8.95;6.50;;;;;;;6.68;53.63;94050.53;6184053;23;20441;-77
2023/02/07 11:18:27;;;;;;;8.77;5.47;;;;;;;6.81;51.10;94045.13;6157705;23;20013;-77
2023/02/07 11:20:55;;;;;;;5.53;3.90;;;;;;;6.58;47.11;94047.69;6184184;23;20507;-77
2023/02/07 11:23:22;;;;;;;8.60;4.80;;;;;;;5.38;50.34;94047.34;6183923;23;20083;-77
2023/02/07 11:25:52;;;;;;;6.82;4.05;;;;;;;4.33;54.19;94047.19;6183187;23;20013;-77
2023/02/07 11:28:22;;;;;;;5.15;3.38;;;;;;;3.91;54.43;94054.56;6182841;23;20087;-77
2023/02/07 11:30:57;;;;;;;7.45;5.07;;;;;;;3.51;56.77;94059.91;6182263;23;20463;-77
2023/02/07 11:33:27;;;;;;;10.55;5.53;;;;;;;3.30;56.72;94060.94;6156403;23;20022;-77